M/T Pazar — TCMC — position and weather

sailwx.info

Track history (hours):
 
Tides and Currents Weather Stations Pressure Air Temp Water Temp Dewpoint Dewpoint Depression Visibility Wind Speed Wind Dir Waves Ship Positions

M/T Pazar

Last reported at 2018-Jan-11 12:11 UTC. Time now 2018-Jan-20 17:15 UTC.
Position N 35°50' E 014°36'.
Warning: this ship's position is 9 days out of date.

Length 85 m; draft 3.9 m.

Type: Tanker. MMSI: 271000251.

Date/timePositionNaut miles runAvg speedWind from/ knotsBaromVisibWave heightAir tempDewpointWater temp
2018-Jan-11 12:11N 35°50' E 014°36'0 0.0
2018-Jan-11 11:14N 35°50' E 014°36'0 0.0
2018-Jan-11 10:50N 35°50' E 014°36'0 0.0
2018-Jan-11 10:20N 35°50' E 014°36'0 0.0
2018-Jan-11 09:56N 35°50' E 014°36'0 0.0
2018-Jan-11 09:26N 35°50' E 014°36'0 0.0
2018-Jan-10 21:51N 35°50' E 014°36'3 7.2
2018-Jan-10 21:29N 35°49' E 014°39'2 0.2
2018-Jan-10 10:17N 35°50' E 014°41'1 2.9
2018-Jan-10 09:58N 35°49' E 014°42'3 6.7
2018-Jan-10 09:28N 35°52' E 014°42'3 5.1
2018-Jan-10 08:58N 35°54' E 014°39'3 6.1
2018-Jan-10 08:30N 35°56' E 014°36'510.1
2018-Jan-10 08:00N 35°59' E 014°32'510.5
2018-Jan-10 07:30N 36°02' E 014°27'510.7
2018-Jan-10 07:00N 36°05' E 014°21'510.2
2018-Jan-10 06:30N 36°08' E 014°16'510.0
2018-Jan-10 06:00N 36°10' E 014°10'510.3
2018-Jan-10 05:30N 36°12' E 014°04'510.4
2018-Jan-10 05:00N 36°14' E 013°59'510.7
2018-Jan-10 04:29N 36°17' E 013°53'  
2018-Jan-05 13:11N 36°20' E 013°54'2 9.5
2018-Jan-05 13:00N 36°19' E 013°55'5 9.6
2018-Jan-05 12:30N 36°17' E 014°01'5 9.5
2018-Jan-05 12:00N 36°15' E 014°06'5 9.2
2018-Jan-05 11:29N 36°12' E 014°11'4 8.9
2018-Jan-05 11:00N 36°10' E 014°15'4 8.4
2018-Jan-05 10:30N 36°08' E 014°20'4 8.0
2018-Jan-05 10:00N 36°06' E 014°24'4 8.0
2018-Jan-05 09:30N 36°04' E 014°29'4 7.9
2018-Jan-05 09:00N 36°02' E 014°33'4 7.8
2018-Jan-05 08:30N 36°01' E 014°38'4 7.3
2018-Jan-05 08:00N 35°59' E 014°41'  
2018-Jan-03 01:45N 35°57' E 014°46'2 9.5
2018-Jan-03 01:30N 35°59' E 014°46'120 4.9
2018-Jan-02 01:14N 37°42' E 016°03'2 9.3
2018-Jan-02 00:59N 37°44' E 016°04'  
Track history (hours):
 
Tides and Currents Weather Stations Pressure Air Temp Water Temp Dewpoint Dewpoint Depression Visibility Wind Speed Wind Dir Waves Ship Positions

M/T Pazar

Last reported at 2018-Jan-11 12:11 UTC. Time now 2018-Jan-20 17:15 UTC.
Position N 35°50' E 014°36'.
Warning: this ship's position is 9 days out of date.

Length 85 m; draft 3.9 m.

Type: Tanker. MMSI: 271000251.

Date/timePositionNaut miles runAvg speedWind from/ knotsBaromVisibWave heightAir tempDewpointWater temp
2018-Jan-11 12:11N 35°50' E 014°36'0 0.0
2018-Jan-11 11:14N 35°50' E 014°36'0 0.0
2018-Jan-11 10:50N 35°50' E 014°36'0 0.0
2018-Jan-11 10:20N 35°50' E 014°36'0 0.0
2018-Jan-11 09:56N 35°50' E 014°36'0 0.0
2018-Jan-11 09:26N 35°50' E 014°36'0 0.0
2018-Jan-10 21:51N 35°50' E 014°36'3 7.2
2018-Jan-10 21:29N 35°49' E 014°39'2 0.2
2018-Jan-10 10:17N 35°50' E 014°41'1 2.9
2018-Jan-10 09:58N 35°49' E 014°42'3 6.7
2018-Jan-10 09:28N 35°52' E 014°42'3 5.1
2018-Jan-10 08:58N 35°54' E 014°39'3 6.1
2018-Jan-10 08:30N 35°56' E 014°36'510.1
2018-Jan-10 08:00N 35°59' E 014°32'510.5
2018-Jan-10 07:30N 36°02' E 014°27'510.7
2018-Jan-10 07:00N 36°05' E 014°21'510.2
2018-Jan-10 06:30N 36°08' E 014°16'510.0
2018-Jan-10 06:00N 36°10' E 014°10'510.3
2018-Jan-10 05:30N 36°12' E 014°04'510.4
2018-Jan-10 05:00N 36°14' E 013°59'510.7
2018-Jan-10 04:29N 36°17' E 013°53'  
2018-Jan-05 13:11N 36°20' E 013°54'2 9.5
2018-Jan-05 13:00N 36°19' E 013°55'5 9.6
2018-Jan-05 12:30N 36°17' E 014°01'5 9.5
2018-Jan-05 12:00N 36°15' E 014°06'5 9.2
2018-Jan-05 11:29N 36°12' E 014°11'4 8.9
2018-Jan-05 11:00N 36°10' E 014°15'4 8.4
2018-Jan-05 10:30N 36°08' E 014°20'4 8.0
2018-Jan-05 10:00N 36°06' E 014°24'4 8.0
2018-Jan-05 09:30N 36°04' E 014°29'4 7.9
2018-Jan-05 09:00N 36°02' E 014°33'4 7.8
2018-Jan-05 08:30N 36°01' E 014°38'4 7.3
2018-Jan-05 08:00N 35°59' E 014°41'  
2018-Jan-03 01:45N 35°57' E 014°46'2 9.5
2018-Jan-03 01:30N 35°59' E 014°46'120 4.9
2018-Jan-02 01:14N 37°42' E 016°03'2 9.3
2018-Jan-02 00:59N 37°44' E 016°04'  

Dump ship's entire track history